createdAt,value
2019-02-08T00:00:37.649Z,0.00
2019-02-08T00:01:37.566Z,0.00
2019-02-08T00:02:37.484Z,0.00
2019-02-08T00:03:37.404Z,0.00
2019-02-08T00:04:37.321Z,0.00
2019-02-08T00:05:37.239Z,0.00
2019-02-08T00:06:37.159Z,0.00
2019-02-08T00:07:37.078Z,0.00
2019-02-08T00:08:36.995Z,0.00
2019-02-08T00:09:36.913Z,0.00
2019-02-08T00:10:36.830Z,0.00
2019-02-08T00:11:36.747Z,0.00
2019-02-08T00:12:36.667Z,0.00
2019-02-08T00:13:36.585Z,0.00
2019-02-08T00:14:36.502Z,0.00
2019-02-08T00:15:36.420Z,0.00
2019-02-08T00:16:36.341Z,0.00
2019-02-08T00:17:36.257Z,0.00
2019-02-08T00:18:36.176Z,0.00
2019-02-08T00:19:36.094Z,0.00
2019-02-08T00:20:36.010Z,0.00
2019-02-08T00:21:35.930Z,0.00
2019-02-08T00:22:35.846Z,0.00
2019-02-08T00:23:35.765Z,0.00
2019-02-08T00:24:35.684Z,0.00
2019-02-08T00:25:35.613Z,0.00
2019-02-08T00:26:35.521Z,0.00
2019-02-08T00:27:35.437Z,0.00
2019-02-08T00:28:35.360Z,0.00
2019-02-08T00:29:35.280Z,0.00
2019-02-08T00:30:35.194Z,0.00
2019-02-08T00:31:35.109Z,0.00
2019-02-08T00:32:35.029Z,0.00
2019-02-08T00:33:34.946Z,0.00
2019-02-08T00:34:34.863Z,0.00
2019-02-08T00:35:34.783Z,0.00
2019-02-08T00:36:34.700Z,0.00
2019-02-08T00:37:34.617Z,0.00
2019-02-08T00:38:34.534Z,0.00
2019-02-08T00:39:34.453Z,0.00
2019-02-08T00:40:34.371Z,0.00
2019-02-08T00:41:34.290Z,0.00
2019-02-08T00:42:34.211Z,0.00
2019-02-08T00:43:34.124Z,0.00
2019-02-08T00:44:34.042Z,0.00
2019-02-08T00:45:33.963Z,0.00
2019-02-08T00:46:33.880Z,0.00
2019-02-08T00:47:33.798Z,0.00
2019-02-08T00:48:33.717Z,0.00
2019-02-08T00:49:33.633Z,0.00
2019-02-08T00:50:33.552Z,0.00
2019-02-08T00:51:33.470Z,0.00
2019-02-08T00:52:33.387Z,0.00
2019-02-08T00:53:33.760Z,0.00
2019-02-08T00:54:33.224Z,0.00
2019-02-08T00:55:33.140Z,0.00
2019-02-08T00:56:33.060Z,0.00
2019-02-08T00:57:32.978Z,0.00
2019-02-08T00:58:32.896Z,0.00
2019-02-08T00:59:32.817Z,0.00
2019-02-08T01:00:32.733Z,0.00
2019-02-08T01:01:32.649Z,0.00
2019-02-08T01:02:32.568Z,0.00
2019-02-08T01:03:32.485Z,0.00
2019-02-08T01:04:32.404Z,0.00
2019-02-08T01:05:32.322Z,0.00
2019-02-08T01:06:32.240Z,0.00
2019-02-08T01:07:32.158Z,0.00
2019-02-08T01:08:32.077Z,0.00
2019-02-08T01:09:31.994Z,0.00
2019-02-08T01:10:31.915Z,0.00
2019-02-08T01:11:31.830Z,0.00
2019-02-08T01:12:31.748Z,0.00
2019-02-08T01:13:31.665Z,0.00
2019-02-08T01:14:31.583Z,0.00
2019-02-08T01:15:31.502Z,0.00
2019-02-08T01:16:31.420Z,0.00
2019-02-08T01:17:31.335Z,0.00
2019-02-08T01:18:31.256Z,0.00
2019-02-08T01:19:31.172Z,0.00
2019-02-08T01:20:31.112Z,0.00
2019-02-08T01:21:31.007Z,0.00
2019-02-08T01:22:30.926Z,0.00
2019-02-08T01:23:30.843Z,0.00
2019-02-08T01:24:30.764Z,0.00
2019-02-08T01:25:30.682Z,0.00
2019-02-08T01:26:30.596Z,0.00
2019-02-08T01:27:30.514Z,0.00
2019-02-08T01:28:30.432Z,0.00
2019-02-08T01:29:30.350Z,0.00
2019-02-08T01:30:30.266Z,0.00
2019-02-08T01:31:30.185Z,0.00
2019-02-08T01:32:30.102Z,0.00
2019-02-08T01:33:30.019Z,0.00
2019-02-08T01:34:29.937Z,0.00
2019-02-08T01:35:29.856Z,0.00
2019-02-08T01:36:29.774Z,0.00
2019-02-08T01:37:29.691Z,0.00
2019-02-08T01:38:29.609Z,0.00
2019-02-08T01:39:29.527Z,0.00
2019-02-08T01:40:29.444Z,0.00
2019-02-08T01:41:29.412Z,0.00
2019-02-08T01:42:29.280Z,0.00
2019-02-08T01:43:29.198Z,0.00
2019-02-08T01:44:29.115Z,0.00
2019-02-08T01:45:29.033Z,0.00
2019-02-08T01:46:28.951Z,0.00
2019-02-08T01:47:28.869Z,0.00
2019-02-08T01:48:28.789Z,0.00
2019-02-08T01:49:28.706Z,0.00
2019-02-08T01:50:28.622Z,0.00
2019-02-08T01:51:28.539Z,0.00
2019-02-08T01:52:28.457Z,0.00
2019-02-08T01:53:28.373Z,0.00
2019-02-08T01:54:28.293Z,0.00
2019-02-08T01:55:28.211Z,0.00
2019-02-08T01:56:28.128Z,0.00
2019-02-08T01:57:28.046Z,0.00
2019-02-08T01:58:27.964Z,0.00
2019-02-08T01:59:27.883Z,0.00
2019-02-08T02:00:27.800Z,0.00
2019-02-08T02:01:27.719Z,0.00
2019-02-08T02:02:27.694Z,0.00
2019-02-08T02:03:27.554Z,0.00
2019-02-08T02:04:27.472Z,0.00
2019-02-08T02:05:27.389Z,0.00
2019-02-08T02:06:27.306Z,0.00
2019-02-08T02:07:27.225Z,0.00
2019-02-08T02:08:27.144Z,0.00
2019-02-08T02:09:27.061Z,0.00
2019-02-08T02:10:26.979Z,0.00
2019-02-08T02:11:26.897Z,0.00
2019-02-08T02:12:26.815Z,0.00
2019-02-08T02:13:26.732Z,0.00
2019-02-08T02:14:26.657Z,0.00
2019-02-08T02:15:26.599Z,0.00
2019-02-08T02:16:26.487Z,0.00
2019-02-08T02:17:26.404Z,0.00
2019-02-08T02:18:26.321Z,0.00
2019-02-08T02:19:26.241Z,0.00
2019-02-08T02:20:26.158Z,0.00
2019-02-08T02:21:26.076Z,0.00
2019-02-08T02:22:25.994Z,0.00
2019-02-08T02:23:25.913Z,0.00
2019-02-08T02:24:25.831Z,0.00
2019-02-08T02:25:25.749Z,0.00
2019-02-08T02:26:25.667Z,0.00
2019-02-08T02:27:25.586Z,0.00
2019-02-08T02:28:25.504Z,0.00
2019-02-08T02:29:25.421Z,0.00
2019-02-08T02:30:25.342Z,0.00
2019-02-08T02:31:25.264Z,0.00
2019-02-08T02:32:25.180Z,0.00
2019-02-08T02:33:25.095Z,0.00
2019-02-08T02:34:25.013Z,0.00
2019-02-08T02:35:24.930Z,0.00
2019-02-08T02:36:24.850Z,0.00
2019-02-08T02:37:24.766Z,0.00
2019-02-08T02:38:24.684Z,0.00
2019-02-08T02:39:24.602Z,0.00
2019-02-08T02:40:24.572Z,0.00
2019-02-08T02:41:24.440Z,0.00
2019-02-08T02:42:24.359Z,0.00
2019-02-08T02:43:24.284Z,0.00
2019-02-08T02:44:24.194Z,0.00
2019-02-08T02:45:24.112Z,0.00
2019-02-08T02:46:24.031Z,0.00
2019-02-08T02:47:23.948Z,0.00
2019-02-08T02:48:23.869Z,0.00
2019-02-08T02:49:23.785Z,0.00
2019-02-08T02:50:23.702Z,0.00
2019-02-08T02:51:23.621Z,0.00
2019-02-08T02:52:23.539Z,0.00
2019-02-08T02:53:23.457Z,0.00
2019-02-08T02:54:23.374Z,0.00
2019-02-08T02:55:23.297Z,0.00
2019-02-08T02:56:23.220Z,0.00
2019-02-08T02:57:23.128Z,0.00
2019-02-08T02:58:23.047Z,0.00
2019-02-08T02:59:22.964Z,0.00
2019-02-08T03:00:23.033Z,0.00
2019-02-08T03:01:22.800Z,0.00
2019-02-08T03:02:22.719Z,0.00
2019-02-08T03:03:22.636Z,0.00
2019-02-08T03:04:22.555Z,0.00
2019-02-08T03:05:22.474Z,0.00
2019-02-08T03:06:22.391Z,0.00
2019-02-08T03:07:22.308Z,0.00
2019-02-08T03:08:22.231Z,0.00
2019-02-08T03:09:22.144Z,0.00
2019-02-08T03:10:22.095Z,0.00
2019-02-08T03:11:21.982Z,0.00
2019-02-08T03:12:21.900Z,0.00
2019-02-08T03:13:21.818Z,0.00
2019-02-08T03:14:21.738Z,0.00
2019-02-08T03:15:21.652Z,0.00
2019-02-08T03:16:21.572Z,0.00
2019-02-08T03:17:21.489Z,0.00
2019-02-08T03:18:21.411Z,0.00
2019-02-08T03:19:21.326Z,0.00
2019-02-08T03:20:21.243Z,0.00
2019-02-08T03:21:21.159Z,0.00
2019-02-08T03:22:21.079Z,0.00
2019-02-08T03:23:20.997Z,0.00
2019-02-08T03:24:20.916Z,0.00
2019-02-08T03:25:20.833Z,0.00
2019-02-08T03:26:20.751Z,0.00
2019-02-08T03:27:20.668Z,0.00
2019-02-08T03:28:20.589Z,0.00
2019-02-08T03:29:20.505Z,0.00
2019-02-08T03:30:20.442Z,0.00
2019-02-08T03:31:20.351Z,0.00
2019-02-08T03:32:20.260Z,0.00
2019-02-08T03:33:20.193Z,0.00
2019-02-08T03:34:20.094Z,0.00
2019-02-08T03:35:20.015Z,0.00
2019-02-08T03:36:19.933Z,0.00
2019-02-08T03:37:19.847Z,0.00
2019-02-08T03:38:19.767Z,0.00
2019-02-08T03:39:19.684Z,0.00
2019-02-08T03:40:19.601Z,0.00
2019-02-08T03:41:19.519Z,0.00
2019-02-08T03:42:19.440Z,0.00
2019-02-08T03:43:19.358Z,0.00
2019-02-08T03:44:19.281Z,0.00
2019-02-08T03:45:19.193Z,0.00
2019-02-08T03:46:19.111Z,0.00
2019-02-08T03:47:19.029Z,0.00
2019-02-08T03:48:18.947Z,0.00
2019-02-08T03:49:18.864Z,0.00
2019-02-08T03:50:18.785Z,0.00
2019-02-08T03:51:18.721Z,0.00
2019-02-08T03:52:18.624Z,0.00
2019-02-08T03:53:18.538Z,0.00
2019-02-08T03:54:21.323Z,0.00
2019-02-08T03:55:18.372Z,0.00
2019-02-08T03:56:18.292Z,0.00
2019-02-08T03:57:18.207Z,0.00
2019-02-08T03:58:18.130Z,0.00
2019-02-08T03:59:18.043Z,0.00
2019-02-08T04:00:17.962Z,0.00
2019-02-08T04:01:17.880Z,0.00
2019-02-08T04:02:17.800Z,0.00
2019-02-08T04:03:17.719Z,0.00
2019-02-08T04:04:17.634Z,0.00
2019-02-08T04:05:17.551Z,0.00
2019-02-08T04:06:17.470Z,0.00
2019-02-08T04:07:17.390Z,0.00
2019-02-08T04:08:17.306Z,0.00
2019-02-08T04:09:17.228Z,0.00
2019-02-08T04:10:17.143Z,0.00
2019-02-08T04:11:17.062Z,0.00
2019-02-08T04:12:16.979Z,0.00
2019-02-08T04:13:16.896Z,0.00
2019-02-08T04:14:16.815Z,0.00
2019-02-08T04:15:16.732Z,0.00
2019-02-08T04:16:16.652Z,0.00
2019-02-08T04:17:16.571Z,0.00
2019-02-08T04:18:16.488Z,0.00
2019-02-08T04:19:16.506Z,0.00
2019-02-08T04:20:16.337Z,0.00
2019-02-08T04:21:16.241Z,0.00
2019-02-08T04:22:16.163Z,0.00
2019-02-08T04:23:16.080Z,0.00
2019-02-08T04:24:15.998Z,0.00
2019-02-08T04:25:15.917Z,0.00
2019-02-08T04:26:15.835Z,0.00
2019-02-08T04:27:15.754Z,0.00
2019-02-08T04:28:15.671Z,0.00
2019-02-08T04:29:15.588Z,0.00
2019-02-08T04:30:15.507Z,0.00
2019-02-08T04:31:15.430Z,0.00
2019-02-08T04:32:15.345Z,0.00
2019-02-08T04:33:15.262Z,0.00
2019-02-08T04:34:15.181Z,0.00
2019-02-08T04:35:15.098Z,0.00
2019-02-08T04:36:15.018Z,0.00
2019-02-08T04:37:14.940Z,0.00
2019-02-08T04:38:14.855Z,0.00
2019-02-08T04:39:14.773Z,0.00
2019-02-08T04:40:14.693Z,0.00
2019-02-08T04:41:14.610Z,0.00
2019-02-08T04:42:14.528Z,0.00
2019-02-08T04:43:14.450Z,0.00
2019-02-08T04:44:14.367Z,0.00
2019-02-08T04:45:14.334Z,0.00
2019-02-08T04:46:14.203Z,0.00
2019-02-08T04:47:14.122Z,0.00
2019-02-08T04:48:14.040Z,0.00
2019-02-08T04:49:13.957Z,0.00
2019-02-08T04:50:13.977Z,0.00
2019-02-08T04:51:13.796Z,0.00
2019-02-08T04:52:13.716Z,0.00
2019-02-08T04:53:13.631Z,0.00
2019-02-08T04:54:13.584Z,0.00
2019-02-08T04:55:13.569Z,0.00
2019-02-08T04:56:13.389Z,0.00
2019-02-08T04:57:13.308Z,0.00
2019-02-08T04:58:13.225Z,0.00
2019-02-08T04:59:13.144Z,0.00
2019-02-08T05:00:13.063Z,0.00
2019-02-08T05:01:12.980Z,0.00
2019-02-08T05:02:12.898Z,0.00
2019-02-08T05:03:12.817Z,0.00
2019-02-08T05:04:12.737Z,0.00
2019-02-08T05:05:12.655Z,0.00
2019-02-08T05:06:12.573Z,0.00
2019-02-08T05:07:12.495Z,0.00
2019-02-08T05:08:12.411Z,0.00
2019-02-08T05:09:12.331Z,0.00
2019-02-08T05:10:12.247Z,0.00
2019-02-08T05:11:12.166Z,0.00
2019-02-08T05:12:12.084Z,0.00
2019-02-08T05:13:12.004Z,0.00
2019-02-08T05:14:11.923Z,0.00
2019-02-08T05:15:11.841Z,0.00
2019-02-08T05:16:11.760Z,0.00
2019-02-08T05:17:11.678Z,0.00
2019-02-08T05:18:11.613Z,0.00
2019-02-08T05:19:11.521Z,0.00
2019-02-08T05:20:11.435Z,0.00
2019-02-08T05:21:11.452Z,0.00
2019-02-08T05:22:11.275Z,0.00
2019-02-08T05:23:11.195Z,0.00
2019-02-08T05:24:11.109Z,0.00
2019-02-08T05:25:11.028Z,0.00
2019-02-08T05:26:10.947Z,0.00
2019-02-08T05:27:10.869Z,0.00
2019-02-08T05:28:10.807Z,0.00
2019-02-08T05:29:10.703Z,0.00
2019-02-08T05:30:10.623Z,0.00
2019-02-08T05:31:10.541Z,0.00
2019-02-08T05:32:10.460Z,0.00
2019-02-08T05:33:10.390Z,0.00
2019-02-08T05:34:10.296Z,0.00
2019-02-08T05:35:10.217Z,0.00
2019-02-08T05:36:10.135Z,0.00
2019-02-08T05:37:10.052Z,0.00
2019-02-08T05:38:09.971Z,0.00
2019-02-08T05:39:09.893Z,0.00
2019-02-08T05:40:09.810Z,0.00
2019-02-08T05:41:09.725Z,0.00
2019-02-08T05:42:09.646Z,0.00
2019-02-08T05:43:09.563Z,0.00
2019-02-08T05:44:09.482Z,0.00
2019-02-08T05:45:09.399Z,0.00
2019-02-08T05:46:09.318Z,0.00
2019-02-08T05:47:09.236Z,0.00
2019-02-08T05:48:09.155Z,0.00
2019-02-08T05:49:09.073Z,0.00
2019-02-08T05:50:08.992Z,0.00
2019-02-08T05:51:08.909Z,0.00
2019-02-08T05:52:08.828Z,0.00
2019-02-08T05:53:08.746Z,0.00
2019-02-08T05:54:08.664Z,0.00
2019-02-08T05:55:08.583Z,0.00
2019-02-08T05:56:08.502Z,0.00
2019-02-08T05:57:08.423Z,0.00
2019-02-08T05:58:08.337Z,0.00
2019-02-08T05:59:08.256Z,0.00
2019-02-08T06:00:08.179Z,0.00
2019-02-08T06:01:08.091Z,0.00
2019-02-08T06:02:08.012Z,0.00
2019-02-08T06:03:07.928Z,0.00
2019-02-08T06:04:07.848Z,0.00
2019-02-08T06:05:07.764Z,0.00
2019-02-08T06:06:07.687Z,0.00
2019-02-08T06:07:07.601Z,0.00
2019-02-08T06:08:07.531Z,0.00
2019-02-08T06:09:07.437Z,0.00
2019-02-08T06:10:07.355Z,0.00
2019-02-08T06:11:07.275Z,0.00
2019-02-08T06:12:07.194Z,0.00
2019-02-08T06:13:07.111Z,0.00
2019-02-08T06:14:07.032Z,0.00
2019-02-08T06:15:06.946Z,0.00
2019-02-08T06:16:06.867Z,0.00
2019-02-08T06:17:06.783Z,0.00
2019-02-08T06:18:06.702Z,0.00
2019-02-08T06:19:06.620Z,0.00
2019-02-08T06:20:06.540Z,0.00
2019-02-08T06:21:06.460Z,0.00
2019-02-08T06:22:06.374Z,0.00
2019-02-08T06:23:06.292Z,0.00
2019-02-08T06:24:06.211Z,0.00
2019-02-08T06:25:06.132Z,0.00
2019-02-08T06:26:06.048Z,0.00
2019-02-08T06:27:05.965Z,0.00
2019-02-08T06:28:05.882Z,0.00
2019-02-08T06:29:05.801Z,0.00
2019-02-08T06:30:05.718Z,0.00
2019-02-08T06:31:05.638Z,0.00
2019-02-08T06:32:05.556Z,0.00
2019-02-08T06:33:05.475Z,0.00
2019-02-08T06:34:05.392Z,0.00
2019-02-08T06:35:05.311Z,0.00
2019-02-08T06:36:05.231Z,0.00
2019-02-08T06:37:05.147Z,0.00
2019-02-08T06:38:05.065Z,0.00
2019-02-08T06:39:04.985Z,0.00
2019-02-08T06:40:04.903Z,0.00
2019-02-08T06:41:04.820Z,0.00
2019-02-08T06:42:04.740Z,0.00
2019-02-08T06:43:04.657Z,0.00
2019-02-08T06:44:04.579Z,0.00
2019-02-08T06:45:04.495Z,0.00
2019-02-08T06:46:04.435Z,0.00
2019-02-08T06:47:04.331Z,0.00
2019-02-08T06:48:04.249Z,0.00
2019-02-08T06:49:04.166Z,0.00
2019-02-08T06:50:04.084Z,0.00
2019-02-08T06:51:04.265Z,0.00
2019-02-08T06:52:03.922Z,0.00
2019-02-08T06:53:03.840Z,0.00
2019-02-08T06:54:03.758Z,0.00
2019-02-08T06:55:10.438Z,0.00
2019-02-08T06:56:03.594Z,0.00
2019-02-08T06:57:03.512Z,0.00
2019-02-08T06:58:03.433Z,0.00
2019-02-08T06:59:03.351Z,0.00
2019-02-08T07:00:03.267Z,0.00
2019-02-08T07:01:03.285Z,5.63
2019-02-08T07:02:03.105Z,5.63
2019-02-08T07:03:03.021Z,5.63
2019-02-08T07:04:02.941Z,5.63
2019-02-08T07:05:02.857Z,5.63
2019-02-08T07:06:02.777Z,5.63
2019-02-08T07:07:02.696Z,5.63
2019-02-08T07:08:02.618Z,5.63
2019-02-08T07:09:02.535Z,5.63
2019-02-08T07:10:02.450Z,5.63
2019-02-08T07:11:02.369Z,5.63
2019-02-08T07:12:02.296Z,5.63
2019-02-08T07:13:02.206Z,5.63
2019-02-08T07:14:02.130Z,16.88
2019-02-08T07:15:02.043Z,22.50
2019-02-08T07:16:01.961Z,16.88
2019-02-08T07:17:01.879Z,16.88
2019-02-08T07:18:01.798Z,16.88
2019-02-08T07:19:01.718Z,22.50
2019-02-08T07:20:01.634Z,22.50
2019-02-08T07:21:01.553Z,22.50
2019-02-08T07:22:01.470Z,22.50
2019-02-08T07:23:01.388Z,22.50
2019-02-08T07:24:01.311Z,22.50
2019-02-08T07:25:01.254Z,22.50
2019-02-08T07:26:01.146Z,28.13
2019-02-08T07:27:01.065Z,33.75
2019-02-08T07:28:00.983Z,39.38
2019-02-08T07:29:00.902Z,45.00
2019-02-08T07:30:00.819Z,39.38
2019-02-08T07:31:00.739Z,39.38
2019-02-08T07:32:00.657Z,39.38
2019-02-08T07:33:00.576Z,33.75
2019-02-08T07:34:00.501Z,45.00
2019-02-08T07:35:00.459Z,56.25
2019-02-08T07:36:00.333Z,56.25
2019-02-08T07:37:00.251Z,56.25
2019-02-08T07:38:00.314Z,50.63
2019-02-08T07:39:00.087Z,56.25
2019-02-08T07:40:00.007Z,61.88
2019-02-08T07:40:59.925Z,67.50
2019-02-08T07:41:59.843Z,61.88
2019-02-08T07:42:59.762Z,56.25
2019-02-08T07:43:59.681Z,50.63
2019-02-08T07:44:59.599Z,78.75
2019-02-08T07:45:59.526Z,95.63
2019-02-08T07:46:59.437Z,90.00
2019-02-08T07:47:59.356Z,84.38
2019-02-08T07:48:59.272Z,78.75
2019-02-08T07:49:59.193Z,84.38
2019-02-08T07:50:59.111Z,95.63
2019-02-08T07:51:59.030Z,106.88
2019-02-08T07:52:58.948Z,112.50
2019-02-08T07:53:58.867Z,129.38
2019-02-08T07:54:58.786Z,129.38
2019-02-08T07:55:58.704Z,140.63
2019-02-08T07:56:58.622Z,146.25
2019-02-08T07:57:58.542Z,140.63
2019-02-08T07:58:58.468Z,151.88
2019-02-08T07:59:58.379Z,146.25
2019-02-08T08:00:58.298Z,135.00
2019-02-08T08:01:58.218Z,135.00
2019-02-08T08:02:58.137Z,135.00
2019-02-08T08:04:01.328Z,135.00
2019-02-08T08:04:57.976Z,135.00
2019-02-08T08:05:57.894Z,140.63
2019-02-08T08:06:57.815Z,146.25
2019-02-08T08:07:57.738Z,140.63
2019-02-08T08:08:57.650Z,140.63
2019-02-08T08:09:57.569Z,151.88
2019-02-08T08:10:57.489Z,157.50
2019-02-08T08:11:57.409Z,157.50
2019-02-08T08:12:57.325Z,174.38
2019-02-08T08:13:57.245Z,163.13
2019-02-08T08:14:57.167Z,151.88
2019-02-08T08:15:57.085Z,163.13
2019-02-08T08:16:57.003Z,163.13
2019-02-08T08:17:56.922Z,157.50
2019-02-08T08:18:56.842Z,163.13
2019-02-08T08:19:56.763Z,157.50
2019-02-08T08:20:56.678Z,157.50
2019-02-08T08:21:56.600Z,151.88
2019-02-08T08:22:56.519Z,163.13
2019-02-08T08:23:56.440Z,185.63
2019-02-08T08:24:56.357Z,180.00
2019-02-08T08:25:56.276Z,174.38
2019-02-08T08:26:56.195Z,185.63
2019-02-08T08:27:56.115Z,185.63
2019-02-08T08:28:56.034Z,191.25
2019-02-08T08:29:55.953Z,185.63
2019-02-08T08:30:55.873Z,208.13
2019-02-08T08:31:55.794Z,191.25
2019-02-08T08:32:55.712Z,180.00
2019-02-08T08:33:55.632Z,185.63
2019-02-08T08:34:55.550Z,174.38
2019-02-08T08:35:55.472Z,180.00
2019-02-08T08:36:55.390Z,151.88
2019-02-08T08:37:55.310Z,163.13
2019-02-08T08:38:55.230Z,180.00
2019-02-08T08:39:55.150Z,185.63
2019-02-08T08:40:55.070Z,191.25
2019-02-08T08:41:54.988Z,191.25
2019-02-08T08:42:54.910Z,191.25
2019-02-08T08:43:54.829Z,191.25
2019-02-08T08:44:54.748Z,225.00
2019-02-08T08:45:54.667Z,202.50
2019-02-08T08:46:54.589Z,196.88
2019-02-08T08:47:54.508Z,191.25
2019-02-08T08:48:54.428Z,202.50
2019-02-08T08:49:54.348Z,219.38
2019-02-08T08:50:54.267Z,253.13
2019-02-08T08:51:54.188Z,253.13
2019-02-08T08:52:54.112Z,225.00
2019-02-08T08:53:54.030Z,236.25
2019-02-08T08:54:53.948Z,253.13
2019-02-08T08:55:53.868Z,258.75
2019-02-08T08:56:53.786Z,236.25
2019-02-08T08:57:53.808Z,208.13
2019-02-08T08:58:53.629Z,202.50
2019-02-08T08:59:53.550Z,241.88
2019-02-08T09:00:53.469Z,264.38
2019-02-08T09:01:53.389Z,253.13
2019-02-08T09:02:53.318Z,264.38
2019-02-08T09:03:53.231Z,241.88
2019-02-08T09:04:53.150Z,236.25
2019-02-08T09:05:53.069Z,241.88
2019-02-08T09:06:52.991Z,230.63
2019-02-08T09:07:52.911Z,213.75
2019-02-08T09:08:52.833Z,202.50
2019-02-08T09:09:52.751Z,213.75
2019-02-08T09:10:52.674Z,219.38
2019-02-08T09:11:52.592Z,241.88
2019-02-08T09:12:52.512Z,253.13
2019-02-08T09:13:52.432Z,258.75
2019-02-08T09:14:52.355Z,270.00
2019-02-08T09:15:52.274Z,286.88
2019-02-08T09:16:52.191Z,298.13
2019-02-08T09:17:52.112Z,315.00
2019-02-08T09:18:52.034Z,337.50
2019-02-08T09:19:51.954Z,326.25
2019-02-08T09:20:51.873Z,337.50
2019-02-08T09:21:51.796Z,343.13
2019-02-08T09:22:51.713Z,348.75
2019-02-08T09:23:51.634Z,337.50
2019-02-08T09:24:51.554Z,298.13
2019-02-08T09:25:51.475Z,281.25
2019-02-08T09:26:51.395Z,286.88
2019-02-08T09:27:51.314Z,292.50
2019-02-08T09:28:51.234Z,303.75
2019-02-08T09:29:51.156Z,264.38
2019-02-08T09:30:51.076Z,264.38
2019-02-08T09:31:50.996Z,241.88
2019-02-08T09:32:50.916Z,230.63
2019-02-08T09:33:50.837Z,236.25
2019-02-08T09:34:50.757Z,225.00
2019-02-08T09:35:50.678Z,241.88
2019-02-08T09:36:50.596Z,208.13
2019-02-08T09:37:50.516Z,196.88
2019-02-08T09:38:50.437Z,191.25
2019-02-08T09:39:50.357Z,185.63
2019-02-08T09:40:50.278Z,208.13
2019-02-08T09:41:50.196Z,219.38
2019-02-08T09:42:50.116Z,247.50
2019-02-08T09:43:50.038Z,281.25
2019-02-08T09:44:49.956Z,337.50
2019-02-08T09:45:49.878Z,315.00
2019-02-08T09:46:49.796Z,281.25
2019-02-08T09:47:49.716Z,253.13
2019-02-08T09:48:49.637Z,270.00
2019-02-08T09:49:49.561Z,365.63
2019-02-08T09:50:49.476Z,331.88
2019-02-08T09:51:49.398Z,343.13
2019-02-08T09:52:49.316Z,320.63
2019-02-08T09:53:49.237Z,320.63
2019-02-08T09:54:49.157Z,320.63
2019-02-08T09:55:49.079Z,281.25
2019-02-08T09:56:48.997Z,281.25
2019-02-08T09:57:48.920Z,247.50
2019-02-08T09:58:48.838Z,270.00
2019-02-08T09:59:48.761Z,365.63
2019-02-08T10:00:48.678Z,348.75
2019-02-08T10:01:48.597Z,337.50
2019-02-08T10:02:48.519Z,337.50
2019-02-08T10:03:48.440Z,309.38
2019-02-08T10:04:48.358Z,348.75
2019-02-08T10:05:48.279Z,371.25
2019-02-08T10:06:48.200Z,455.63
2019-02-08T10:07:48.121Z,371.25
2019-02-08T10:08:48.040Z,376.88
2019-02-08T10:09:47.961Z,382.50
2019-02-08T10:10:47.882Z,416.25
2019-02-08T10:11:47.801Z,376.88
2019-02-08T10:12:47.723Z,365.63
2019-02-08T10:13:47.643Z,360.00
2019-02-08T10:14:47.567Z,388.13
2019-02-08T10:15:47.484Z,382.50
2019-02-08T10:16:47.411Z,354.38
2019-02-08T10:17:47.325Z,461.25
2019-02-08T10:18:47.245Z,461.25
2019-02-08T10:19:47.167Z,444.38
2019-02-08T10:20:47.086Z,450.00
2019-02-08T10:21:47.007Z,450.00
2019-02-08T10:22:46.928Z,421.88
2019-02-08T10:23:46.847Z,388.13
2019-02-08T10:24:46.769Z,461.25
2019-02-08T10:25:46.691Z,506.25
2019-02-08T10:26:46.610Z,545.63
2019-02-08T10:27:46.533Z,517.50
2019-02-08T10:28:46.452Z,472.50
2019-02-08T10:29:46.373Z,450.00
2019-02-08T10:30:46.293Z,461.25
2019-02-08T10:31:46.216Z,472.50
2019-02-08T10:32:46.136Z,472.50
2019-02-08T10:33:46.058Z,472.50
2019-02-08T10:34:45.980Z,450.00
2019-02-08T10:35:45.901Z,410.63
2019-02-08T10:36:45.820Z,393.75
2019-02-08T10:37:45.743Z,444.38
2019-02-08T10:38:45.663Z,410.63
2019-02-08T10:39:45.586Z,348.75
2019-02-08T10:40:45.505Z,303.75
2019-02-08T10:41:45.429Z,286.88
2019-02-08T10:42:45.348Z,331.88
2019-02-08T10:43:45.271Z,388.13
2019-02-08T10:44:45.190Z,483.75
2019-02-08T10:45:45.115Z,483.75
2019-02-08T10:46:45.035Z,483.75
2019-02-08T10:47:44.955Z,450.00
2019-02-08T10:48:44.878Z,483.75
2019-02-08T10:49:44.800Z,371.25
2019-02-08T10:50:44.721Z,450.00
2019-02-08T10:51:44.645Z,466.88
2019-02-08T10:52:44.565Z,573.75
2019-02-08T10:53:44.487Z,483.75
2019-02-08T10:54:44.409Z,506.25
2019-02-08T10:55:44.332Z,438.75
2019-02-08T10:56:44.254Z,466.88
2019-02-08T10:57:44.178Z,528.75
2019-02-08T10:58:44.102Z,596.25
2019-02-08T10:59:44.024Z,590.63
2019-02-08T11:00:43.947Z,618.75
2019-02-08T11:01:43.869Z,821.25
2019-02-08T11:02:43.841Z,781.88
2019-02-08T11:03:43.716Z,691.88
2019-02-08T11:04:43.639Z,725.63
2019-02-08T11:05:43.562Z,731.25
2019-02-08T11:06:43.487Z,618.75
2019-02-08T11:07:43.409Z,556.88
2019-02-08T11:08:43.334Z,579.38
2019-02-08T11:09:43.258Z,613.13
2019-02-08T11:10:43.182Z,618.75
2019-02-08T11:11:43.110Z,646.88
2019-02-08T11:12:43.028Z,562.50
2019-02-08T11:13:42.952Z,596.25
2019-02-08T11:14:42.875Z,534.38
2019-02-08T11:15:42.799Z,545.63
2019-02-08T11:16:42.722Z,461.25
2019-02-08T11:17:42.645Z,376.88
2019-02-08T11:18:42.569Z,393.75
2019-02-08T11:19:42.492Z,461.25
2019-02-08T11:20:42.415Z,500.63
2019-02-08T11:21:42.338Z,455.63
2019-02-08T11:22:42.262Z,534.38
2019-02-08T11:23:42.206Z,556.88
2019-02-08T11:24:42.107Z,658.13
2019-02-08T11:25:42.029Z,483.75
2019-02-08T11:26:41.955Z,438.75
2019-02-08T11:27:41.877Z,455.63
2019-02-08T11:28:41.800Z,444.38
2019-02-08T11:29:41.722Z,461.25
2019-02-08T11:30:41.645Z,500.63
2019-02-08T11:31:41.566Z,540.00
2019-02-08T11:32:43.576Z,590.63
2019-02-08T11:33:41.418Z,579.38
2019-02-08T11:34:41.336Z,585.00
2019-02-08T11:35:41.258Z,781.88
2019-02-08T11:36:41.180Z,736.88
2019-02-08T11:37:41.104Z,697.50
2019-02-08T11:38:41.026Z,686.25
2019-02-08T11:39:40.949Z,534.38
2019-02-08T11:40:40.871Z,652.50
2019-02-08T11:41:40.794Z,641.25
2019-02-08T11:42:40.718Z,703.13
2019-02-08T11:43:40.640Z,753.75
2019-02-08T11:44:40.564Z,933.75
2019-02-08T11:45:40.484Z,703.13
2019-02-08T11:46:40.412Z,635.63
2019-02-08T11:47:40.331Z,652.50
2019-02-08T11:48:40.253Z,815.63
2019-02-08T11:49:40.176Z,613.13
2019-02-08T11:50:40.099Z,596.25
2019-02-08T11:51:40.021Z,635.63
2019-02-08T11:52:39.944Z,720.00
2019-02-08T11:53:39.867Z,753.75
2019-02-08T11:54:39.790Z,894.38
2019-02-08T11:55:39.713Z,832.50
2019-02-08T11:56:39.635Z,787.50
2019-02-08T11:57:39.559Z,990.00
2019-02-08T11:58:39.482Z,765.00
2019-02-08T11:59:39.404Z,759.38
2019-02-08T12:00:39.328Z,776.25
2019-02-08T12:01:39.250Z,810.00
2019-02-08T12:02:40.485Z,787.50
2019-02-08T12:03:39.097Z,849.38
2019-02-08T12:04:39.020Z,1136.25
2019-02-08T12:05:38.943Z,1068.75
2019-02-08T12:06:38.867Z,1293.75
2019-02-08T12:07:38.939Z,1468.13
2019-02-08T12:08:38.715Z,1220.63
2019-02-08T12:09:38.637Z,1018.13
2019-02-08T12:10:38.561Z,1665.00
2019-02-08T12:11:38.485Z,1653.75
2019-02-08T12:12:38.408Z,1040.63
2019-02-08T12:13:38.334Z,1108.13
2019-02-08T12:14:38.259Z,866.25
2019-02-08T12:15:38.183Z,877.50
2019-02-08T12:16:38.105Z,1051.88
2019-02-08T12:17:38.032Z,1046.25
2019-02-08T12:18:37.955Z,1366.88
2019-02-08T12:19:37.881Z,793.13
2019-02-08T12:20:37.808Z,843.75
2019-02-08T12:21:37.732Z,978.75
2019-02-08T12:22:37.656Z,793.13
2019-02-08T12:23:37.581Z,838.13
2019-02-08T12:24:37.506Z,714.38
2019-02-08T12:25:37.431Z,596.25
2019-02-08T12:26:38.136Z,663.75
2019-02-08T12:27:37.280Z,630.00
2019-02-08T12:28:37.206Z,579.38
2019-02-08T12:29:37.131Z,506.25
2019-02-08T12:30:37.056Z,455.63
2019-02-08T12:31:36.988Z,388.13
2019-02-08T12:32:36.904Z,365.63
2019-02-08T12:33:36.835Z,365.63
2019-02-08T12:34:36.755Z,371.25
2019-02-08T12:35:36.678Z,405.00
2019-02-08T12:36:36.602Z,444.38
2019-02-08T12:37:36.528Z,466.88
2019-02-08T12:38:36.449Z,455.63
2019-02-08T12:39:36.373Z,410.63
2019-02-08T12:40:36.297Z,365.63
2019-02-08T12:41:36.221Z,360.00
2019-02-08T12:42:36.144Z,354.38
2019-02-08T12:43:36.067Z,393.75
2019-02-08T12:44:35.991Z,388.13
2019-02-08T12:45:35.915Z,360.00
2019-02-08T12:46:35.837Z,343.13
2019-02-08T12:47:35.762Z,337.50
2019-02-08T12:48:36.563Z,309.38
2019-02-08T12:49:35.608Z,270.00
2019-02-08T12:50:35.533Z,253.13
2019-02-08T12:51:35.454Z,236.25
2019-02-08T12:52:35.377Z,225.00
2019-02-08T12:53:35.302Z,208.13
2019-02-08T12:54:35.574Z,191.25
2019-02-08T12:55:35.147Z,191.25